createdAt,value
2019-06-10T00:01:43.311Z,95.80
2019-06-10T00:04:12.960Z,95.70
2019-06-10T00:06:42.657Z,95.70
2019-06-10T00:09:12.372Z,95.70
2019-06-10T00:11:42.139Z,95.90
2019-06-10T00:14:11.739Z,96.00
2019-06-10T00:16:41.727Z,96.00
2019-06-10T00:19:12.705Z,96.20
2019-06-10T00:21:42.545Z,96.50
2019-06-10T00:24:12.163Z,96.50
2019-06-10T00:26:43.333Z,96.70
2019-06-10T00:29:12.959Z,96.60
2019-06-10T00:31:42.575Z,96.40
2019-06-10T00:34:12.590Z,96.30
2019-06-10T00:36:42.454Z,96.40
2019-06-10T00:39:13.534Z,96.20
2019-06-10T00:41:43.512Z,96.30
2019-06-10T00:44:13.295Z,96.60
2019-06-10T00:46:42.933Z,96.70
2019-06-10T00:49:15.355Z,96.70
2019-06-10T00:51:44.990Z,96.80
2019-06-10T00:54:15.757Z,97.50
2019-06-10T00:56:45.590Z,97.80
2019-06-10T00:59:15.546Z,97.70
2019-06-10T01:01:45.289Z,98.00
2019-06-10T01:04:16.673Z,98.00
2019-06-10T01:06:46.307Z,97.60
2019-06-10T01:09:16.003Z,97.60
2019-06-10T01:11:45.600Z,97.50
2019-06-10T01:14:15.567Z,97.50
2019-06-10T01:16:45.475Z,97.70
2019-06-10T01:19:15.757Z,97.90
2019-06-10T01:21:45.594Z,98.20
2019-06-10T01:24:15.197Z,98.30
2019-06-10T01:26:44.863Z,98.50
2019-06-10T01:29:15.562Z,98.20
2019-06-10T01:31:46.908Z,97.70
2019-06-10T01:34:18.456Z,98.10
2019-06-10T01:36:48.144Z,97.90
2019-06-10T01:39:18.081Z,97.90
2019-06-10T01:41:47.836Z,98.00
2019-06-10T01:44:17.746Z,97.40
2019-06-10T01:46:51.603Z,97.80
2019-06-10T01:49:21.414Z,97.80
2019-06-10T01:51:51.694Z,97.90
2019-06-10T01:54:21.593Z,98.00
2019-06-10T01:56:51.377Z,98.50
2019-06-10T01:59:22.056Z,98.70
2019-06-10T02:02:02.362Z,98.30
2019-06-10T02:04:32.321Z,98.20
2019-06-10T02:07:02.233Z,98.80
2019-06-10T02:09:31.925Z,98.80
2019-06-10T02:12:02.168Z,98.80
2019-06-10T02:14:33.555Z,98.80
2019-06-10T02:17:03.181Z,98.50
2019-06-10T02:19:32.781Z,98.50
2019-06-10T02:22:02.416Z,98.60
2019-06-10T02:24:32.025Z,98.30
2019-06-10T02:27:02.493Z,98.30
2019-06-10T02:29:33.648Z,98.20
2019-06-10T02:32:05.187Z,98.00
2019-06-10T02:34:42.809Z,97.80
2019-06-10T02:37:06.428Z,97.70
2019-06-10T02:39:39.000Z,97.70
2019-06-10T02:42:14.816Z,97.80
2019-06-10T02:44:44.597Z,97.50
2019-06-10T02:47:19.089Z,97.30
2019-06-10T02:49:56.969Z,96.90
2019-06-10T02:52:23.153Z,97.50
2019-06-10T02:54:53.672Z,97.80
2019-06-10T02:57:31.893Z,98.00
2019-06-10T02:59:55.551Z,98.40
2019-06-10T03:02:31.382Z,98.30
2019-06-10T03:04:56.509Z,98.20
2019-06-10T03:07:29.335Z,98.20
2019-06-10T03:09:57.594Z,98.20
2019-06-10T03:12:28.194Z,98.60
2019-06-10T03:14:57.958Z,98.30
2019-06-10T03:17:28.269Z,97.50
2019-06-10T03:19:57.971Z,97.40
2019-06-10T03:22:28.488Z,97.80
2019-06-10T03:24:58.274Z,97.70
2019-06-10T03:27:28.027Z,98.20
2019-06-10T03:29:57.668Z,98.20
2019-06-10T03:32:33.308Z,98.20
2019-06-10T03:34:58.719Z,98.30
2019-06-10T03:37:29.556Z,98.60
2019-06-10T03:39:59.119Z,98.60
2019-06-10T03:42:28.779Z,98.30
2019-06-10T03:44:58.406Z,98.00
2019-06-10T03:47:28.848Z,98.00
2019-06-10T03:49:58.597Z,98.10
2019-06-10T03:52:28.624Z,98.20
2019-06-10T03:54:58.306Z,98.40
2019-06-10T03:57:28.669Z,98.70
2019-06-10T03:59:58.431Z,98.70
2019-06-10T04:02:29.859Z,98.30
2019-06-10T04:04:59.502Z,98.10
2019-06-10T04:07:31.147Z,97.80
2019-06-10T04:10:02.267Z,97.60
2019-06-10T04:12:32.750Z,97.70
2019-06-10T04:15:03.189Z,97.80
2019-06-10T04:17:33.436Z,97.60
2019-06-10T04:20:11.527Z,97.60
2019-06-10T04:22:35.049Z,97.10
2019-06-10T04:25:07.683Z,97.20
2019-06-10T04:27:37.314Z,97.00
2019-06-10T04:30:08.412Z,97.00
2019-06-10T04:32:38.039Z,96.80
2019-06-10T04:35:07.880Z,96.60
2019-06-10T04:37:37.480Z,96.30
2019-06-10T04:40:08.716Z,96.00
2019-06-10T04:42:38.319Z,95.80
2019-06-10T04:45:12.306Z,95.70
2019-06-10T04:47:43.163Z,95.60
2019-06-10T04:50:24.679Z,95.10
2019-06-10T04:52:44.480Z,95.00
2019-06-10T04:55:15.879Z,94.50
2019-06-10T04:57:45.477Z,94.00
2019-06-10T05:00:15.441Z,93.60
2019-06-10T05:02:45.126Z,92.90
2019-06-10T05:05:16.877Z,93.00
2019-06-10T05:07:46.498Z,92.50
2019-06-10T05:10:19.047Z,92.30
2019-06-10T05:12:52.455Z,92.30
2019-06-10T05:15:24.307Z,91.40
2019-06-10T05:17:53.082Z,91.10
2019-06-10T05:20:39.105Z,90.90
2019-06-10T05:22:54.023Z,90.50
2019-06-10T05:25:28.481Z,89.40
2019-06-10T05:27:58.095Z,90.00
2019-06-10T05:30:29.110Z,90.20
2019-06-10T05:32:59.058Z,90.30
2019-06-10T05:35:29.949Z,90.40
2019-06-10T05:38:02.261Z,90.30
2019-06-10T05:40:34.055Z,90.60
2019-06-10T05:43:02.689Z,88.30
2019-06-10T05:45:34.865Z,86.70
2019-06-10T05:48:03.749Z,87.20
2019-06-10T05:50:35.179Z,86.30
2019-06-10T05:53:04.855Z,87.60
2019-06-10T05:55:35.259Z,88.70
2019-06-10T05:58:05.152Z,89.30
2019-06-10T06:00:35.527Z,88.20
2019-06-10T06:03:05.588Z,87.60
2019-06-10T06:05:37.651Z,87.00
2019-06-10T06:08:08.961Z,85.80
2019-06-10T06:10:38.302Z,85.80
2019-06-10T06:13:07.994Z,84.70
2019-06-10T06:15:38.064Z,85.00
2019-06-10T06:18:10.585Z,83.70
2019-06-10T06:20:39.244Z,85.40
2019-06-10T06:23:09.335Z,84.30
2019-06-10T06:25:43.346Z,84.90
2019-06-10T06:28:12.952Z,85.10
2019-06-10T06:30:42.321Z,85.90
2019-06-10T06:33:13.594Z,84.10
2019-06-10T06:35:46.351Z,83.20
2019-06-10T06:38:14.852Z,82.70
2019-06-10T06:40:44.446Z,83.40
2019-06-10T06:43:14.078Z,82.30
2019-06-10T06:45:43.674Z,82.50
2019-06-10T06:48:13.305Z,81.30
2019-06-10T06:51:00.420Z,82.40
2019-06-10T06:53:25.650Z,81.30
2019-06-10T06:55:46.007Z,81.00
2019-06-10T06:58:15.599Z,79.20
2019-06-10T07:01:00.561Z,81.10
2019-06-10T07:03:18.151Z,80.30
2019-06-10T07:05:47.883Z,79.70
2019-06-10T07:08:18.420Z,79.10
2019-06-10T07:10:48.928Z,77.50
2019-06-10T07:13:18.691Z,76.80
2019-06-10T07:15:48.600Z,76.50
2019-06-10T07:18:18.223Z,76.90
2019-06-10T07:20:47.925Z,76.70
2019-06-10T07:23:17.552Z,75.30
2019-06-10T07:25:47.820Z,75.00
2019-06-10T07:28:17.822Z,75.10
2019-06-10T07:30:52.738Z,74.70
2019-06-10T07:33:22.551Z,74.10
2019-06-10T07:35:52.521Z,74.10
2019-06-10T07:38:26.211Z,72.90
2019-06-10T07:40:57.409Z,72.90
2019-06-10T07:43:27.003Z,71.60
2019-06-10T07:45:59.141Z,71.50
2019-06-10T07:48:28.039Z,73.30
2019-06-10T07:50:57.674Z,72.40
2019-06-10T07:53:27.266Z,71.30
2019-06-10T07:55:56.887Z,71.30
2019-06-10T07:58:28.698Z,72.50
2019-06-10T08:00:57.839Z,67.90
2019-06-10T08:03:27.440Z,69.50
2019-06-10T08:05:57.138Z,66.70
2019-06-10T08:08:26.736Z,67.00
2019-06-10T08:10:56.368Z,67.50
2019-06-10T08:13:27.786Z,68.00
2019-06-10T08:15:57.417Z,68.80
2019-06-10T08:18:27.035Z,68.50
2019-06-10T08:20:56.723Z,70.30
2019-06-10T08:23:26.568Z,69.70
2019-06-10T08:25:57.703Z,66.70
2019-06-10T08:28:27.757Z,66.10
2019-06-10T08:30:57.520Z,64.40
2019-06-10T08:33:27.146Z,65.60
2019-06-10T08:36:00.417Z,66.50
2019-06-10T08:38:28.206Z,66.00
2019-06-10T08:40:57.815Z,65.90
2019-06-10T08:43:27.720Z,64.60
2019-06-10T08:45:57.315Z,64.60
2019-06-10T08:48:26.964Z,67.90
2019-06-10T08:50:56.614Z,64.00
2019-06-10T08:53:26.239Z,64.60
2019-06-10T08:55:55.846Z,64.60
2019-06-10T08:58:27.089Z,64.70
2019-06-10T09:00:56.822Z,63.10
2019-06-10T09:03:26.456Z,62.90
2019-06-10T09:05:58.247Z,63.30
2019-06-10T09:08:27.395Z,61.90
2019-06-10T09:10:57.033Z,61.60
2019-06-10T09:13:26.633Z,62.20
2019-06-10T09:16:11.721Z,61.60
2019-06-10T09:18:27.659Z,62.70
2019-06-10T09:20:57.256Z,63.50
2019-06-10T09:23:28.591Z,62.60
2019-06-10T09:25:58.228Z,64.20
2019-06-10T09:28:27.827Z,61.60
2019-06-10T09:30:59.447Z,59.80
2019-06-10T09:33:28.863Z,62.50
2019-06-10T09:35:58.554Z,59.90
2019-06-10T09:38:28.160Z,60.30
2019-06-10T09:41:01.841Z,59.90
2019-06-10T09:43:29.544Z,60.20
2019-06-10T09:45:59.712Z,60.40
2019-06-10T09:48:33.324Z,60.10
2019-06-10T09:51:02.458Z,59.10
2019-06-10T09:53:41.419Z,59.60
2019-06-10T09:56:04.976Z,60.70
2019-06-10T09:58:34.672Z,62.30
2019-06-10T10:01:05.541Z,61.50
2019-06-10T10:03:36.756Z,61.00
2019-06-10T10:06:13.987Z,62.40
2019-06-10T10:08:38.900Z,63.40
2019-06-10T10:11:08.515Z,61.10
2019-06-10T10:13:45.002Z,61.90
2019-06-10T10:16:13.115Z,60.30
2019-06-10T10:18:48.292Z,63.60
2019-06-10T10:21:15.901Z,63.50
2019-06-10T10:23:57.803Z,62.60
2019-06-10T10:26:16.932Z,62.30
2019-06-10T10:28:51.761Z,61.30
2019-06-10T10:31:23.972Z,61.80
2019-06-10T10:33:53.887Z,60.50
2019-06-10T10:36:23.551Z,60.10
2019-06-10T10:38:55.897Z,60.70
2019-06-10T10:41:27.035Z,60.30
2019-06-10T10:43:58.514Z,59.90
2019-06-10T10:46:32.618Z,61.10
2019-06-10T10:49:02.792Z,62.60
2019-06-10T10:51:32.764Z,63.10
2019-06-10T10:54:21.045Z,62.50
2019-06-10T10:56:34.089Z,61.70
2019-06-10T10:59:05.089Z,62.20
2019-06-10T11:01:35.426Z,61.10
2019-06-10T11:04:06.259Z,60.60
2019-06-10T11:06:35.953Z,62.10
2019-06-10T11:09:09.037Z,61.60
2019-06-10T11:11:44.537Z,62.50
2019-06-10T11:14:16.264Z,62.10
2019-06-10T11:16:49.490Z,62.40
2019-06-10T11:19:17.244Z,61.70
2019-06-10T11:21:49.475Z,60.00
2019-06-10T11:24:33.562Z,61.20
2019-06-10T11:26:54.531Z,61.60
2019-06-10T11:29:21.962Z,61.60
2019-06-10T11:31:55.144Z,60.60
2019-06-10T11:34:22.973Z,61.60
2019-06-10T11:36:55.034Z,61.00
2019-06-10T11:39:24.085Z,60.30
2019-06-10T11:41:55.997Z,60.20
2019-06-10T11:44:25.108Z,60.50
2019-06-10T11:46:57.684Z,62.30
2019-06-10T11:49:26.137Z,60.00
2019-06-10T11:51:56.468Z,61.30
2019-06-10T11:54:27.250Z,60.80
2019-06-10T11:56:58.599Z,59.80
2019-06-10T11:59:28.280Z,62.00
2019-06-10T12:02:01.646Z,60.00
2019-06-10T12:04:29.238Z,61.20
2019-06-10T12:06:59.087Z,62.50
2019-06-10T12:09:28.907Z,61.90
2019-06-10T12:12:01.972Z,59.50
2019-06-10T12:14:32.458Z,60.20
2019-06-10T12:17:32.783Z,62.40
2019-06-10T12:19:34.336Z,60.80
2019-06-10T12:22:07.541Z,60.60
2019-06-10T12:24:37.039Z,61.80
2019-06-10T12:27:08.157Z,61.60
2019-06-10T12:29:37.781Z,61.10
2019-06-10T12:32:07.839Z,59.90
2019-06-10T12:34:37.555Z,59.30
2019-06-10T12:37:11.064Z,60.40
2019-06-10T12:39:38.614Z,59.50
2019-06-10T12:42:13.613Z,59.50
2019-06-10T12:44:42.902Z,60.60
2019-06-10T12:47:12.607Z,61.60
2019-06-10T12:49:42.733Z,60.00
2019-06-10T12:52:12.924Z,60.80
2019-06-10T12:54:42.625Z,63.30
2019-06-10T12:57:12.485Z,62.50
2019-06-10T12:59:45.162Z,61.90
2019-06-10T13:02:23.114Z,61.70
2019-06-10T13:04:48.884Z,63.40
2019-06-10T13:07:19.063Z,65.50
2019-06-10T13:09:48.763Z,66.80
2019-06-10T13:12:18.362Z,68.20
2019-06-10T13:14:49.098Z,65.90
2019-06-10T13:17:18.699Z,65.50
2019-06-10T13:19:48.431Z,67.20
2019-06-10T13:22:18.100Z,67.40
2019-06-10T13:24:47.727Z,64.80
2019-06-10T13:27:17.334Z,65.30
2019-06-10T13:29:46.963Z,64.60
2019-06-10T13:32:16.570Z,63.70
2019-06-10T13:34:46.204Z,66.20
2019-06-10T13:37:16.295Z,65.30
2019-06-10T13:39:46.007Z,65.60
2019-06-10T13:42:15.610Z,65.70
2019-06-10T13:44:45.402Z,66.40
2019-06-10T13:47:15.156Z,67.60
2019-06-10T13:49:49.239Z,66.50
2019-06-10T13:52:16.982Z,64.30
2019-06-10T13:54:46.781Z,65.90
2019-06-10T13:57:16.384Z,62.90
2019-06-10T13:59:46.526Z,61.30
2019-06-10T14:02:16.301Z,63.40
2019-06-10T14:04:45.905Z,64.60
2019-06-10T14:07:17.346Z,65.00
2019-06-10T14:09:46.952Z,63.60
2019-06-10T14:12:17.339Z,61.80
2019-06-10T14:14:47.507Z,61.00
2019-06-10T14:17:19.441Z,63.20
2019-06-10T14:19:48.612Z,63.60
2019-06-10T14:22:18.265Z,62.50
2019-06-10T14:24:47.867Z,62.90
2019-06-10T14:27:21.380Z,62.50
2019-06-10T14:29:48.886Z,62.80
2019-06-10T14:32:18.485Z,63.90
2019-06-10T14:34:48.104Z,61.00
2019-06-10T14:37:32.116Z,61.70
2019-06-10T14:39:52.758Z,62.30
2019-06-10T14:42:23.119Z,64.50
2019-06-10T14:44:52.865Z,62.50
2019-06-10T14:47:23.096Z,65.10
2019-06-10T14:49:53.050Z,64.50
2019-06-10T14:52:24.466Z,63.10
2019-06-10T14:54:57.438Z,63.70
2019-06-10T14:57:25.403Z,65.20
2019-06-10T14:59:55.036Z,63.10
2019-06-10T15:02:24.663Z,63.90
2019-06-10T15:04:55.802Z,62.20
2019-06-10T15:07:25.423Z,63.40
2019-06-10T15:09:55.023Z,64.50
2019-06-10T15:12:24.647Z,64.60
2019-06-10T15:14:54.247Z,63.50
2019-06-10T15:17:23.892Z,66.10
2019-06-10T15:19:53.557Z,65.40
2019-06-10T15:22:23.731Z,66.80
2019-06-10T15:24:53.460Z,67.10
2019-06-10T15:27:29.858Z,67.00
2019-06-10T15:29:54.500Z,66.20
2019-06-10T15:32:33.731Z,66.60
2019-06-10T15:34:55.453Z,67.00
2019-06-10T15:37:28.653Z,67.70
2019-06-10T15:39:56.497Z,68.20
2019-06-10T15:42:28.651Z,67.30
2019-06-10T15:44:57.444Z,66.10
2019-06-10T15:47:29.835Z,65.80
2019-06-10T15:49:59.502Z,65.30
2019-06-10T15:52:29.131Z,64.90
2019-06-10T15:54:58.727Z,66.80
2019-06-10T15:57:39.492Z,66.80
2019-06-10T15:59:59.714Z,67.40
2019-06-10T16:02:29.336Z,67.40
2019-06-10T16:04:58.950Z,68.00
2019-06-10T16:07:28.550Z,67.80
2019-06-10T16:09:58.173Z,66.20
2019-06-10T16:12:27.774Z,67.00
2019-06-10T16:14:57.474Z,68.50
2019-06-10T16:17:29.954Z,67.80
2019-06-10T16:19:58.426Z,68.20
2019-06-10T16:22:28.052Z,67.80
2019-06-10T16:24:57.657Z,66.30
2019-06-10T16:27:43.703Z,67.60
2019-06-10T16:29:58.604Z,67.70
2019-06-10T16:32:28.237Z,68.30
2019-06-10T16:34:57.858Z,68.00
2019-06-10T16:37:27.466Z,67.00
2019-06-10T16:40:00.271Z,65.80
2019-06-10T16:42:32.038Z,66.70
2019-06-10T16:45:02.550Z,65.50
2019-06-10T16:47:32.687Z,65.70
2019-06-10T16:50:03.311Z,65.40
2019-06-10T16:52:34.288Z,66.20
2019-06-10T16:55:05.536Z,67.20
2019-06-10T16:57:35.141Z,67.70
2019-06-10T17:00:13.859Z,69.40
2019-06-10T17:02:42.526Z,69.60
2019-06-10T17:05:12.181Z,68.90
2019-06-10T17:07:43.490Z,68.90
2019-06-10T17:10:13.609Z,68.80
2019-06-10T17:12:43.311Z,69.30
2019-06-10T17:15:13.508Z,69.60
2019-06-10T17:17:43.139Z,71.30
2019-06-10T17:20:13.679Z,72.20
2019-06-10T17:22:43.555Z,70.80
2019-06-10T17:25:13.678Z,71.40
2019-06-10T17:27:43.281Z,72.50
2019-06-10T17:30:14.760Z,72.80
2019-06-10T17:32:44.390Z,74.10
2019-06-10T17:35:15.883Z,75.80
2019-06-10T17:37:45.513Z,76.90
2019-06-10T17:40:15.732Z,75.70
2019-06-10T17:42:45.371Z,78.10
2019-06-10T17:45:15.680Z,79.60
2019-06-10T17:47:46.767Z,81.10
2019-06-10T17:50:16.970Z,81.80
2019-06-10T17:52:46.606Z,84.70
2019-06-10T17:55:16.461Z,87.30
2019-06-10T17:57:47.553Z,85.60
2019-06-10T18:00:18.177Z,84.20
2019-06-10T18:02:47.783Z,85.60
2019-06-10T18:05:17.420Z,86.30
2019-06-10T18:07:47.056Z,87.40
2019-06-10T18:10:18.274Z,85.20
2019-06-10T18:12:47.892Z,87.80
2019-06-10T18:15:18.198Z,86.90
2019-06-10T18:17:48.367Z,90.00
2019-06-10T18:20:19.110Z,87.90
2019-06-10T18:22:48.724Z,88.30
2019-06-10T18:25:18.592Z,89.10
2019-06-10T18:27:48.208Z,88.90
2019-06-10T18:30:18.356Z,90.10
2019-06-10T18:32:49.492Z,90.40
2019-06-10T18:35:22.349Z,90.10
2019-06-10T18:37:52.917Z,88.30
2019-06-10T18:40:23.232Z,90.30
2019-06-10T18:42:52.909Z,90.80
2019-06-10T18:45:24.001Z,90.90
2019-06-10T18:47:53.635Z,90.50
2019-06-10T18:50:25.976Z,91.20
2019-06-10T18:52:57.358Z,90.50
2019-06-10T18:55:28.534Z,91.20
2019-06-10T18:57:58.127Z,91.40
2019-06-10T19:00:44.985Z,89.90
2019-06-10T19:03:10.479Z,90.00
2019-06-10T19:05:33.106Z,91.20
2019-06-10T19:08:02.558Z,91.40
2019-06-10T19:10:34.262Z,91.70
2019-06-10T19:13:03.604Z,92.00
2019-06-10T19:15:33.644Z,92.40
2019-06-10T19:18:03.351Z,92.10
2019-06-10T19:20:36.964Z,91.20
2019-06-10T19:23:04.557Z,91.20
2019-06-10T19:25:37.274Z,91.30
2019-06-10T19:28:05.848Z,91.70
2019-06-10T19:30:37.686Z,92.10
2019-06-10T19:33:07.033Z,92.90
2019-06-10T19:35:38.177Z,93.20
2019-06-10T19:38:12.597Z,93.30
2019-06-10T19:40:42.899Z,93.20
2019-06-10T19:43:13.347Z,93.50
2019-06-10T19:45:44.188Z,93.60
2019-06-10T19:48:13.820Z,93.20
2019-06-10T19:50:49.944Z,93.50
2019-06-10T19:53:14.858Z,93.60
2019-06-10T19:55:46.084Z,93.90
2019-06-10T19:58:15.882Z,93.50
2019-06-10T20:00:50.794Z,93.70
2019-06-10T20:03:16.861Z,93.40
2019-06-10T20:05:47.258Z,93.00
2019-06-10T20:08:16.905Z,93.00
2019-06-10T20:10:46.539Z,92.50
2019-06-10T20:13:16.212Z,92.70
2019-06-10T20:15:47.092Z,92.90
2019-06-10T20:18:17.201Z,93.00
2019-06-10T20:20:47.625Z,93.00
2019-06-10T20:23:18.306Z,93.10
2019-06-10T20:25:48.863Z,93.00
2019-06-10T20:28:18.555Z,93.20
2019-06-10T20:30:49.135Z,93.20
2019-06-10T20:33:20.568Z,93.30
2019-06-10T20:35:50.197Z,93.10
2019-06-10T20:38:22.210Z,93.00
2019-06-10T20:40:53.067Z,93.10
2019-06-10T20:43:22.541Z,93.90
2019-06-10T20:45:52.185Z,93.80
2019-06-10T20:48:24.921Z,93.00
2019-06-10T20:50:54.544Z,92.80
2019-06-10T20:53:24.149Z,93.80
2019-06-10T20:55:57.394Z,93.60
2019-06-10T20:58:25.113Z,93.80
2019-06-10T21:00:57.186Z,93.60
2019-06-10T21:03:26.804Z,93.40
2019-06-10T21:06:02.932Z,94.50
2019-06-10T21:08:34.049Z,94.40
2019-06-10T21:11:03.647Z,94.70
2019-06-10T21:13:33.427Z,94.80
2019-06-10T21:16:03.974Z,94.80
2019-06-10T21:18:33.667Z,95.10
2019-06-10T21:21:03.608Z,94.70
2019-06-10T21:23:33.320Z,94.20
2019-06-10T21:26:03.272Z,94.10
2019-06-10T21:28:33.038Z,94.30
2019-06-10T21:31:03.057Z,94.40
2019-06-10T21:33:33.472Z,94.60
2019-06-10T21:36:03.812Z,94.50
2019-06-10T21:38:33.890Z,94.60
2019-06-10T21:41:03.575Z,95.10
2019-06-10T21:43:33.360Z,95.40
2019-06-10T21:46:03.885Z,95.70
2019-06-10T21:48:33.732Z,95.80
2019-06-10T21:51:03.343Z,95.70
2019-06-10T21:53:32.976Z,95.90
2019-06-10T21:56:02.584Z,96.00
2019-06-10T21:58:32.852Z,96.00
2019-06-10T22:01:12.443Z,96.20
2019-06-10T22:03:36.635Z,96.20
2019-06-10T22:06:06.241Z,96.40
2019-06-10T22:08:35.950Z,96.50
2019-06-10T22:11:05.848Z,96.50
2019-06-10T22:13:35.574Z,96.60
2019-06-10T22:16:05.510Z,96.60
2019-06-10T22:18:35.108Z,96.60
2019-06-10T22:21:04.910Z,96.40
2019-06-10T22:23:34.515Z,96.40
2019-06-10T22:26:04.144Z,96.50
2019-06-10T22:28:33.746Z,97.00
2019-06-10T22:31:18.173Z,97.00
2019-06-10T22:33:34.764Z,96.90
2019-06-10T22:36:04.754Z,97.10
2019-06-10T22:38:34.389Z,97.30
2019-06-10T22:41:04.086Z,97.30
2019-06-10T22:43:33.687Z,97.20
2019-06-10T22:46:03.978Z,97.00
2019-06-10T22:48:33.865Z,96.90
2019-06-10T22:51:03.469Z,96.80
2019-06-10T22:53:33.446Z,96.60
2019-06-10T22:56:03.214Z,96.50
2019-06-10T22:58:32.961Z,96.70
2019-06-10T23:01:04.306Z,96.70
2019-06-10T23:03:34.140Z,96.60
2019-06-10T23:06:03.776Z,96.60
2019-06-10T23:08:33.545Z,96.70
2019-06-10T23:11:03.308Z,96.80
2019-06-10T23:13:33.056Z,97.10
2019-06-10T23:16:02.730Z,97.10
2019-06-10T23:18:32.314Z,97.30
2019-06-10T23:21:04.435Z,97.30
2019-06-10T23:23:33.262Z,97.10
2019-06-10T23:26:03.108Z,97.10
2019-06-10T23:28:32.906Z,97.20
2019-06-10T23:31:05.276Z,97.20
2019-06-10T23:33:34.174Z,97.40
2019-06-10T23:36:04.217Z,97.10
2019-06-10T23:38:33.989Z,96.90
2019-06-10T23:41:03.915Z,97.20
2019-06-10T23:43:34.061Z,97.60
2019-06-10T23:46:04.434Z,97.60
2019-06-10T23:48:34.381Z,97.80
2019-06-10T23:51:05.062Z,97.80
2019-06-10T23:53:34.887Z,97.70
2019-06-10T23:56:05.162Z,97.60
2019-06-10T23:58:35.021Z,97.80
